Time,TemperatureF,DewpointF,PressureIn,WindDirection,WindDirectionDegrees,WindSpeedMPH,WindSpeedGustMPH,Humidity,HourlyPrecipIn,Conditions,Clouds,dailyrainin,SoftwareType,DateUTC
2013-01-17 00:04:00,32.7,29.0,30.07,SW,228,3.0,4.0,86,0.00,,---,0.01,VWS V14.00,2013-01-17 06:04:00,
2013-01-17 00:09:00,32.7,29.0,30.07,SW,228,3.0,3.0,86,0.00,,---,0.00,VWS V14.00,2013-01-17 06:09:00,
2013-01-17 00:14:00,32.5,28.8,30.07,SW,228,3.0,3.0,86,0.00,,---,0.00,VWS V14.00,2013-01-17 06:14:00,
2013-01-17 00:19:00,32.5,28.8,30.08,SW,228,4.0,4.0,86,0.00,,---,0.00,VWS V14.00,2013-01-17 06:19:00,
2013-01-17 00:24:00,32.5,29.1,30.08,SW,228,3.0,4.0,87,0.00,,---,0.00,VWS V14.00,2013-01-17 06:24:00,
2013-01-17 00:29:00,32.5,28.8,30.08,SW,228,5.0,5.0,86,0.00,,---,0.00,VWS V14.00,2013-01-17 06:29:00,
2013-01-17 00:34:00,32.5,28.8,30.08,SW,228,2.0,2.0,86,0.00,,---,0.00,VWS V14.00,2013-01-17 06:34:00,
2013-01-17 00:39:00,32.5,28.5,30.08,SW,228,1.0,2.0,85,0.00,,---,0.00,VWS V14.00,2013-01-17 06:39:00,
2013-01-17 00:44:00,32.7,28.7,30.08,SW,228,2.0,3.0,85,0.00,,---,0.00,VWS V14.00,2013-01-17 06:44:00,
2013-01-17 00:49:00,32.7,28.4,30.09,SW,228,4.0,6.0,84,0.00,,---,0.00,VWS V14.00,2013-01-17 06:49:00,
2013-01-17 00:55:00,32.8,28.2,30.09,SW,228,4.0,5.0,83,0.00,,---,0.00,VWS V14.00,2013-01-17 06:55:00,
2013-01-17 01:00:00,32.8,28.2,30.09,SW,228,3.0,4.0,83,0.00,,---,0.00,VWS V14.00,2013-01-17 07:00:00,
2013-01-17 01:05:00,32.7,28.1,30.09,SW,228,1.0,4.0,83,0.00,,---,0.00,VWS V14.00,2013-01-17 07:05:00,
2013-01-17 01:10:00,32.4,27.8,30.09,SW,228,1.0,2.0,83,0.00,,---,0.00,VWS V14.00,2013-01-17 07:10:00,
2013-01-17 01:15:00,31.9,27.3,30.09,SW,228,0.0,1.0,83,0.00,,---,0.00,VWS V14.00,2013-01-17 07:15:00,
2013-01-17 01:20:00,31.5,26.9,30.09,SW,228,2.0,2.0,83,0.00,,---,0.00,VWS V14.00,2013-01-17 07:20:00,
2013-01-17 01:25:00,31.2,26.9,30.09,SW,228,0.0,2.0,84,0.00,,---,0.00,VWS V14.00,2013-01-17 07:25:00,
2013-01-17 01:30:00,30.9,26.9,30.09,SW,228,1.0,4.0,85,0.00,,---,0.00,VWS V14.00,2013-01-17 07:30:00,
2013-01-17 01:35:00,30.4,26.4,30.10,SW,228,3.0,3.0,85,0.00,,---,0.00,VWS V14.00,2013-01-17 07:35:00,
2013-01-17 01:40:00,30.3,26.3,30.10,SW,228,2.0,3.0,85,0.00,,---,0.00,VWS V14.00,2013-01-17 07:40:00,
2013-01-17 01:45:00,30.4,26.4,30.10,SW,228,3.0,4.0,85,0.00,,---,0.00,VWS V14.00,2013-01-17 07:45:00,
2013-01-17 01:51:00,30.4,26.4,30.11,SW,228,2.0,4.0,85,0.00,,---,0.00,VWS V14.00,2013-01-17 07:51:00,
2013-01-17 01:56:00,30.6,26.6,30.11,SW,228,2.0,4.0,85,0.00,,---,0.00,VWS V14.00,2013-01-17 07:56:00,
2013-01-17 02:01:00,30.6,26.6,30.11,SW,228,2.0,3.0,85,0.00,,---,0.00,VWS V14.00,2013-01-17 08:01:00,
2013-01-17 02:06:00,30.4,26.1,30.12,SW,228,3.0,3.0,84,0.00,,---,0.00,VWS V14.00,2013-01-17 08:06:00,
2013-01-17 02:11:00,30.4,26.1,30.12,SW,228,2.0,3.0,84,0.00,,---,0.00,VWS V14.00,2013-01-17 08:11:00,
2013-01-17 02:16:00,30.3,26.1,30.12,SW,228,2.0,3.0,84,0.00,,---,0.00,VWS V14.00,2013-01-17 08:16:00,
2013-01-17 02:21:00,30.3,26.1,30.12,SW,228,2.0,2.0,84,0.00,,---,0.00,VWS V14.00,2013-01-17 08:21:00,
2013-01-17 02:26:00,30.3,26.1,30.12,SW,228,3.0,3.0,84,0.00,,---,0.00,VWS V14.00,2013-01-17 08:26:00,
2013-01-17 02:31:00,30.3,26.1,30.12,SW,228,1.0,2.0,84,0.00,,---,0.00,VWS V14.00,2013-01-17 08:31:00,
2013-01-17 02:36:00,30.1,25.9,30.11,SW,228,2.0,2.0,84,0.00,,---,0.00,VWS V14.00,2013-01-17 08:36:00,
2013-01-17 02:41:00,30.1,25.9,30.11,SW,228,5.0,5.0,84,0.00,,---,0.00,VWS V14.00,2013-01-17 08:41:00,
2013-01-17 02:46:00,30.1,25.9,30.11,SW,228,4.0,5.0,84,0.00,,---,0.00,VWS V14.00,2013-01-17 08:46:00,
2013-01-17 02:51:00,30.3,26.1,30.11,SW,228,3.0,5.0,84,0.00,,---,0.00,VWS V14.00,2013-01-17 08:51:00,
2013-01-17 02:56:00,30.3,26.1,30.11,SW,229,4.0,7.0,84,0.00,,---,0.00,VWS V14.00,2013-01-17 08:56:00,
2013-01-17 03:02:00,30.3,25.8,30.11,SW,229,3.0,5.0,83,0.00,,---,0.00,VWS V14.00,2013-01-17 09:02:00,
2013-01-17 03:07:00,30.1,25.6,30.11,SW,229,2.0,3.0,83,0.00,,---,0.00,VWS V14.00,2013-01-17 09:07:00,
2013-01-17 03:12:00,30.0,25.5,30.11,SW,229,1.0,3.0,83,0.00,,---,0.00,VWS V14.00,2013-01-17 09:12:00,
2013-01-17 03:17:00,30.0,25.5,30.11,SW,229,3.0,6.0,83,0.00,,---,0.00,VWS V14.00,2013-01-17 09:17:00,
2013-01-17 03:22:00,30.0,25.5,30.12,SW,229,3.0,5.0,83,0.00,,---,0.00,VWS V14.00,2013-01-17 09:22:00,
2013-01-17 03:27:00,30.0,25.8,30.12,SW,229,2.0,3.0,84,0.00,,---,0.00,VWS V14.00,2013-01-17 09:27:00,
2013-01-17 03:32:00,30.0,25.8,30.12,SW,229,4.0,4.0,84,0.00,,---,0.00,VWS V14.00,2013-01-17 09:32:00,
2013-01-17 03:37:00,30.0,25.8,30.13,SW,229,3.0,5.0,84,0.00,,---,0.00,VWS V14.00,2013-01-17 09:37:00,
2013-01-17 03:42:00,30.0,25.8,30.13,SW,229,3.0,4.0,84,0.00,,---,0.00,VWS V14.00,2013-01-17 09:42:00,
2013-01-17 03:47:00,30.0,26.0,30.13,SW,229,2.0,5.0,85,0.00,,---,0.00,VWS V14.00,2013-01-17 09:47:00,
2013-01-17 03:52:00,30.1,26.1,30.13,SW,229,3.0,3.0,85,0.00,,---,0.00,VWS V14.00,2013-01-17 09:52:00,
2013-01-17 03:57:00,30.6,26.9,30.13,SW,229,2.0,5.0,86,0.00,,---,0.00,VWS V14.00,2013-01-17 09:57:00,
2013-01-17 04:02:00,30.9,27.2,30.13,SW,230,4.0,6.0,86,0.00,,---,0.00,VWS V14.00,2013-01-17 10:02:00,
2013-01-17 04:07:00,31.2,27.5,30.13,SW,230,5.0,5.0,86,0.00,,---,0.00,VWS V14.00,2013-01-17 10:07:00,
2013-01-17 04:12:00,31.5,27.8,30.13,SW,231,2.0,5.0,86,0.00,,---,0.00,VWS V14.00,2013-01-17 10:12:00,
2013-01-17 04:17:00,31.5,27.8,30.13,SW,231,1.0,3.0,86,0.00,,---,0.00,VWS V14.00,2013-01-17 10:17:00,
2013-01-17 04:22:00,31.5,27.8,30.14,SW,231,1.0,3.0,86,0.00,,---,0.00,VWS V14.00,2013-01-17 10:22:00,
2013-01-17 04:27:00,31.5,27.8,30.14,SW,231,1.0,3.0,86,0.00,,---,0.00,VWS V14.00,2013-01-17 10:27:00,
2013-01-17 04:32:00,31.3,27.6,30.14,SW,231,2.0,4.0,86,0.00,,---,0.00,VWS V14.00,2013-01-17 10:32:00,
2013-01-17 04:38:00,31.3,27.6,30.15,SW,231,2.0,4.0,86,0.00,,---,0.00,VWS V14.00,2013-01-17 10:38:00,
2013-01-17 04:43:00,31.5,28.1,30.15,SW,231,0.0,0.0,87,0.00,,---,0.00,VWS V14.00,2013-01-17 10:43:00,
2013-01-17 04:48:00,31.5,28.1,30.15,SW,231,0.0,0.0,87,0.00,,---,0.00,VWS V14.00,2013-01-17 10:48:00,
2013-01-17 04:53:00,31.3,27.9,30.16,SW,231,0.0,0.0,87,0.00,,---,0.00,VWS V14.00,2013-01-17 10:53:00,
2013-01-17 04:58:00,31.3,27.9,30.16,SW,231,2.0,3.0,87,0.00,,---,0.00,VWS V14.00,2013-01-17 10:58:00,
2013-01-17 05:03:00,31.3,27.9,30.16,SW,231,3.0,5.0,87,0.00,,---,0.00,VWS V14.00,2013-01-17 11:03:00,
2013-01-17 05:08:00,31.6,28.5,30.16,SW,231,3.0,3.0,88,0.00,,---,0.00,VWS V14.00,2013-01-17 11:08:00,
2013-01-17 05:13:00,31.8,28.4,30.16,SW,231,3.0,3.0,87,0.00,,---,0.00,VWS V14.00,2013-01-17 11:13:00,
2013-01-17 05:18:00,31.9,28.5,30.16,SW,232,3.0,4.0,87,0.00,,---,0.00,VWS V14.00,2013-01-17 11:18:00,
2013-01-17 05:23:00,32.1,28.7,30.17,SW,232,3.0,4.0,87,0.00,,---,0.00,VWS V14.00,2013-01-17 11:23:00,
2013-01-17 05:28:00,31.9,28.5,30.17,SW,232,3.0,4.0,87,0.00,,---,0.00,VWS V14.00,2013-01-17 11:28:00,
2013-01-17 05:33:00,31.9,28.5,30.17,SW,232,4.0,4.0,87,0.00,,---,0.00,VWS V14.00,2013-01-17 11:33:00,
2013-01-17 05:38:00,31.9,28.2,30.18,SW,232,4.0,5.0,86,0.00,,---,0.00,VWS V14.00,2013-01-17 11:38:00,
2013-01-17 05:43:00,31.8,28.1,30.18,WSW,238,3.0,7.0,86,0.00,,---,0.00,VWS V14.00,2013-01-17 11:43:00,
2013-01-17 05:48:00,31.8,28.1,30.19,NW,324,5.0,10.0,86,0.00,,---,0.00,VWS V14.00,2013-01-17 11:48:00,
2013-01-17 05:53:00,31.9,28.2,30.19,NNW,333,8.0,8.0,86,0.00,,---,0.00,VWS V14.00,2013-01-17 11:53:00,
2013-01-17 05:58:00,31.8,28.1,30.19,NNW,334,5.0,7.0,86,0.00,,---,0.00,VWS V14.00,2013-01-17 11:58:00,
2013-01-17 06:03:00,31.6,27.9,30.19,NNW,335,6.0,9.0,86,0.00,,---,0.00,VWS V14.00,2013-01-17 12:03:00,
2013-01-17 06:08:00,31.6,27.9,30.19,NNW,338,10.0,10.0,86,0.00,,---,0.00,VWS V14.00,2013-01-17 12:08:00,
2013-01-17 06:13:00,31.3,28.7,30.19,North,355,5.0,7.0,90,0.00,,---,0.00,VWS V14.00,2013-01-17 12:13:00,
2013-01-17 06:18:00,31.3,27.6,30.20,North,355,5.0,5.0,86,0.00,,---,0.00,VWS V14.00,2013-01-17 12:18:00,
2013-01-17 06:24:00,31.2,27.2,30.20,North,351,5.0,7.0,85,0.00,,---,0.00,VWS V14.00,2013-01-17 12:24:00,
2013-01-17 06:29:00,31.2,27.2,30.20,North,351,5.0,5.0,85,0.00,,---,0.00,VWS V14.00,2013-01-17 12:29:00,
2013-01-17 06:34:00,30.9,26.9,30.21,North,350,5.0,8.0,85,0.00,,---,0.00,VWS V14.00,2013-01-17 12:34:00,
2013-01-17 06:39:00,30.9,26.9,30.21,North,350,6.0,7.0,85,0.00,,---,0.00,VWS V14.00,2013-01-17 12:39:00,
2013-01-17 06:44:00,30.6,26.6,30.21,North,350,6.0,10.0,85,0.00,,---,0.00,VWS V14.00,2013-01-17 12:44:00,
2013-01-17 06:49:00,30.4,26.4,30.22,North,355,7.0,12.0,85,0.00,,---,0.00,VWS V14.00,2013-01-17 12:49:00,
2013-01-17 06:54:00,30.3,26.3,30.22,North,355,6.0,11.0,85,0.00,,---,0.00,VWS V14.00,2013-01-17 12:54:00,
2013-01-17 06:59:00,30.3,26.3,30.22,North,350,9.0,15.0,85,0.00,,---,0.00,VWS V14.00,2013-01-17 12:59:00,
2013-01-17 07:04:00,30.1,26.4,30.22,North,360,13.0,13.0,86,0.00,,---,0.00,VWS V14.00,2013-01-17 13:04:00,
2013-01-17 07:09:00,30.0,26.3,30.22,North,355,6.0,10.0,86,0.00,,---,0.00,VWS V14.00,2013-01-17 13:09:00,
2013-01-17 07:14:00,29.8,26.4,30.22,North,360,6.0,13.0,87,0.00,,---,0.00,VWS V14.00,2013-01-17 13:14:00,
2013-01-17 07:20:00,29.7,26.3,30.23,North,5,5.0,14.0,87,0.00,,---,0.00,VWS V14.00,2013-01-17 13:20:00,
2013-01-17 07:25:00,29.5,26.4,30.23,North,5,6.0,10.0,88,0.00,,---,0.00,VWS V14.00,2013-01-17 13:25:00,
2013-01-17 07:30:00,29.4,26.3,30.23,North,5,6.0,9.0,88,0.00,,---,0.00,VWS V14.00,2013-01-17 13:30:00,
2013-01-17 07:35:00,29.4,26.3,30.24,North,5,5.0,7.0,88,0.00,,---,0.00,VWS V14.00,2013-01-17 13:35:00,
2013-01-17 07:40:00,29.3,26.2,30.24,North,360,6.0,8.0,88,0.00,,---,0.00,VWS V14.00,2013-01-17 13:40:00,
2013-01-17 07:45:00,29.3,25.9,30.24,North,360,6.0,7.0,87,0.00,,---,0.00,VWS V14.00,2013-01-17 13:45:00,
2013-01-17 07:50:00,29.3,25.9,30.24,North,360,10.0,10.0,87,0.00,,---,0.00,VWS V14.00,2013-01-17 13:50:00,
2013-01-17 07:55:00,29.3,25.9,30.24,North,360,4.0,8.0,87,0.00,,---,0.00,VWS V14.00,2013-01-17 13:55:00,
2013-01-17 08:00:00,29.3,25.6,30.24,North,360,4.0,7.0,86,0.00,,---,0.00,VWS V14.00,2013-01-17 14:00:00,
2013-01-17 08:05:00,29.3,25.6,30.25,North,9,6.0,7.0,86,0.00,,---,0.00,VWS V14.00,2013-01-17 14:05:00,
2013-01-17 08:11:00,29.3,25.4,30.25,North,360,6.0,10.0,85,0.00,,---,0.00,VWS V14.00,2013-01-17 14:11:00,
2013-01-17 08:16:00,29.3,25.1,30.25,North,5,6.0,7.0,84,0.00,,---,0.00,VWS V14.00,2013-01-17 14:16:00,
2013-01-17 08:21:00,29.3,24.5,30.26,North,5,5.0,10.0,82,0.00,,---,0.00,VWS V14.00,2013-01-17 14:21:00,
2013-01-17 08:26:00,29.4,24.3,30.26,North,5,8.0,8.0,81,0.00,,---,0.00,VWS V14.00,2013-01-17 14:26:00,
2013-01-17 08:31:00,29.4,23.4,30.26,North,5,7.0,7.0,78,0.00,,---,0.00,VWS V14.00,2013-01-17 14:31:00,
2013-01-17 08:36:00,29.5,23.2,30.27,North,5,4.0,9.0,77,0.00,,---,0.00,VWS V14.00,2013-01-17 14:36:00,
2013-01-17 08:41:00,29.7,22.8,30.27,North,5,5.0,11.0,75,0.00,,---,0.00,VWS V14.00,2013-01-17 14:41:00,
2013-01-17 08:46:00,29.8,22.5,30.27,North,360,3.0,9.0,74,0.00,,---,0.00,VWS V14.00,2013-01-17 14:46:00,
2013-01-17 08:51:00,30.1,22.5,30.28,North,360,9.0,10.0,73,0.00,,---,0.00,VWS V14.00,2013-01-17 14:51:00,
2013-01-17 08:56:00,30.1,21.9,30.28,North,360,8.0,10.0,71,0.00,,---,0.00,VWS V14.00,2013-01-17 14:56:00,
2013-01-17 09:02:00,30.1,21.9,30.28,North,360,7.0,7.0,71,0.00,,---,0.00,VWS V14.00,2013-01-17 15:02:00,
2013-01-17 09:07:00,30.3,22.0,30.29,North,355,7.0,10.0,71,0.00,,---,0.00,VWS V14.00,2013-01-17 15:07:00,
2013-01-17 09:12:00,30.3,21.7,30.29,North,355,6.0,6.0,70,0.00,,---,0.00,VWS V14.00,2013-01-17 15:12:00,
2013-01-17 09:17:00,30.4,22.1,30.29,North,355,3.0,3.0,71,0.00,,---,0.00,VWS V14.00,2013-01-17 15:17:00,
2013-01-17 09:22:00,30.7,21.8,30.30,North,360,3.0,3.0,69,0.00,,---,0.00,VWS V14.00,2013-01-17 15:22:00,
2013-01-17 09:27:00,30.9,21.9,30.30,North,360,2.0,5.0,69,0.00,,---,0.00,VWS V14.00,2013-01-17 15:27:00,
2013-01-17 09:32:00,31.3,22.3,30.30,North,355,8.0,9.0,69,0.00,,---,0.00,VWS V14.00,2013-01-17 15:32:00,
2013-01-17 09:37:00,31.0,21.7,30.30,NNW,348,5.0,9.0,68,0.00,,---,0.00,VWS V14.00,2013-01-17 15:37:00,
2013-01-17 09:42:00,31.2,21.9,30.30,North,360,7.0,11.0,68,0.00,,---,0.00,VWS V14.00,2013-01-17 15:42:00,
2013-01-17 09:48:00,31.3,22.0,30.30,North,360,9.0,10.0,68,0.00,,---,0.00,VWS V14.00,2013-01-17 15:48:00,
2013-01-17 09:53:00,31.5,21.8,30.31,North,360,7.0,11.0,67,0.00,,---,0.00,VWS V14.00,2013-01-17 15:53:00,
2013-01-17 09:58:00,31.5,21.8,30.31,North,355,5.0,9.0,67,0.00,,---,0.00,VWS V14.00,2013-01-17 15:58:00,
2013-01-17 10:03:00,31.6,21.9,30.31,North,355,6.0,7.0,67,0.00,,---,0.00,VWS V14.00,2013-01-17 16:03:00,
2013-01-17 10:08:00,31.8,22.1,30.31,North,349,4.0,4.0,67,0.00,,---,0.00,VWS V14.00,2013-01-17 16:08:00,
2013-01-17 10:13:00,32.2,22.8,30.31,NNW,346,4.0,6.0,68,0.00,,---,0.00,VWS V14.00,2013-01-17 16:13:00,
2013-01-17 10:18:00,32.2,22.1,30.31,North,355,5.0,10.0,66,0.00,,---,0.00,VWS V14.00,2013-01-17 16:18:00,
2013-01-17 10:23:00,32.1,22.4,30.31,North,9,8.0,12.0,67,0.00,,---,0.00,VWS V14.00,2013-01-17 16:23:00,
2013-01-17 10:28:00,32.1,22.4,30.31,North,351,5.0,9.0,67,0.00,,---,0.00,VWS V14.00,2013-01-17 16:28:00,
2013-01-17 10:33:00,32.1,22.0,30.31,North,355,5.0,7.0,66,0.00,,---,0.00,VWS V14.00,2013-01-17 16:33:00,
2013-01-17 10:39:00,32.4,22.3,30.31,North,355,4.0,7.0,66,0.00,,---,0.00,VWS V14.00,2013-01-17 16:39:00,
2013-01-17 10:44:00,32.4,21.6,30.31,NNW,346,6.0,10.0,64,0.00,,---,0.00,VWS V14.00,2013-01-17 16:44:00,
2013-01-17 10:49:00,32.2,21.0,30.32,NNW,344,8.0,8.0,63,0.00,,---,0.00,VWS V14.00,2013-01-17 16:49:00,
2013-01-17 10:54:00,32.4,21.6,30.32,NNW,336,5.0,7.0,64,0.00,,---,0.00,VWS V14.00,2013-01-17 16:54:00,
2013-01-17 10:59:00,32.5,20.2,30.32,North,360,5.0,10.0,60,0.00,,---,0.00,VWS V14.00,2013-01-17 16:59:00,
2013-01-17 11:04:00,32.7,20.8,30.32,NW,318,6.0,8.0,61,0.00,,---,0.00,VWS V14.00,2013-01-17 17:04:00,
2013-01-17 11:09:00,32.5,20.2,30.32,NNW,341,4.0,6.0,60,0.00,,---,0.00,VWS V14.00,2013-01-17 17:09:00,
2013-01-17 11:14:00,32.5,20.2,30.32,NNW,343,5.0,7.0,60,0.00,,---,0.00,VWS V14.00,2013-01-17 17:14:00,
2013-01-17 11:19:00,32.7,20.4,30.31,NNW,342,6.0,6.0,60,0.00,,---,0.00,VWS V14.00,2013-01-17 17:19:00,
2013-01-17 11:24:00,32.8,20.5,30.31,NNW,337,7.0,8.0,60,0.00,,---,0.00,VWS V14.00,2013-01-17 17:24:00,
2013-01-17 11:29:00,32.9,20.9,30.31,NNW,338,6.0,6.0,61,0.00,,---,0.00,VWS V14.00,2013-01-17 17:29:00,
2013-01-17 11:34:00,32.9,20.9,30.31,NNW,338,2.0,5.0,61,0.00,,---,0.00,VWS V14.00,2013-01-17 17:34:00,
2013-01-17 11:39:00,33.1,20.7,30.31,NNW,338,5.0,5.0,60,0.00,,---,0.00,VWS V14.00,2013-01-17 17:39:00,
2013-01-17 11:44:00,33.5,21.1,30.31,NNW,342,5.0,6.0,60,0.00,,---,0.00,VWS V14.00,2013-01-17 17:44:00,
2013-01-17 11:49:00,33.7,20.1,30.31,NW,324,6.0,9.0,57,0.00,,---,0.00,VWS V14.00,2013-01-17 17:49:00,
2013-01-17 11:54:00,33.7,20.5,30.31,NNW,339,5.0,7.0,58,0.00,,---,0.00,VWS V14.00,2013-01-17 17:54:00,
2013-01-17 11:59:00,33.7,20.9,30.31,NNW,339,7.0,7.0,59,0.00,,---,0.00,VWS V14.00,2013-01-17 17:59:00,
2013-01-17 12:04:00,33.7,21.3,30.31,NW,306,11.0,12.0,60,0.00,,---,0.00,VWS V14.00,2013-01-17 18:04:00,
2013-01-17 12:09:00,33.7,20.1,30.31,WNW,297,6.0,7.0,57,0.00,,---,0.00,VWS V14.00,2013-01-17 18:09:00,
2013-01-17 12:14:00,33.5,19.9,30.31,NNW,333,7.0,11.0,57,0.00,,---,0.00,VWS V14.00,2013-01-17 18:14:00,
2013-01-17 12:19:00,33.5,19.1,30.30,NNW,332,7.0,10.0,55,0.00,,---,0.00,VWS V14.00,2013-01-17 18:19:00,
2013-01-17 12:24:00,33.7,19.7,30.30,NNW,329,8.0,10.0,56,0.00,,---,0.00,VWS V14.00,2013-01-17 18:24:00,
2013-01-17 12:30:00,33.5,19.5,30.30,NNW,343,5.0,7.0,56,0.00,,---,0.00,VWS V14.00,2013-01-17 18:30:00,
2013-01-17 12:35:00,33.5,18.2,30.30,NW,313,6.0,9.0,53,0.00,,---,0.00,VWS V14.00,2013-01-17 18:35:00,
2013-01-17 12:40:00,33.4,18.6,30.30,NW,326,3.0,7.0,54,0.00,,---,0.00,VWS V14.00,2013-01-17 18:40:00,
2013-01-17 12:45:00,33.2,17.9,30.30,NNW,340,5.0,7.0,53,0.00,,---,0.00,VWS V14.00,2013-01-17 18:45:00,
2013-01-17 12:50:00,32.9,17.7,30.30,NW,325,4.0,11.0,53,0.00,,---,0.00,VWS V14.00,2013-01-17 18:50:00,
2013-01-17 12:55:00,33.2,19.6,30.30,NW,307,3.0,5.0,57,0.00,,---,0.00,VWS V14.00,2013-01-17 18:55:00,
2013-01-17 13:00:00,33.8,19.4,30.30,NW,305,5.0,6.0,55,0.00,,---,0.00,VWS V14.00,2013-01-17 19:00:00,
2013-01-17 13:05:00,33.8,18.5,30.30,WNW,298,8.0,12.0,53,0.00,,---,0.00,VWS V14.00,2013-01-17 19:05:00,
2013-01-17 13:10:00,33.7,18.4,30.30,NNW,331,10.0,13.0,53,0.00,,---,0.00,VWS V14.00,2013-01-17 19:10:00,
2013-01-17 13:15:00,33.7,18.8,30.30,NNW,330,6.0,10.0,54,0.00,,---,0.00,VWS V14.00,2013-01-17 19:15:00,
2013-01-17 13:20:00,33.7,19.3,30.30,NW,324,8.0,9.0,55,0.00,,---,0.00,VWS V14.00,2013-01-17 19:20:00,
2013-01-17 13:25:00,33.8,19.4,30.30,NW,326,5.0,11.0,55,0.00,,---,0.00,VWS V14.00,2013-01-17 19:25:00,
2013-01-17 13:30:00,34.0,18.7,30.30,NNW,329,14.0,14.0,53,0.00,,---,0.00,VWS V14.00,2013-01-17 19:30:00,
2013-01-17 13:35:00,33.8,19.4,30.30,NNW,327,4.0,9.0,55,0.00,,---,0.00,VWS V14.00,2013-01-17 19:35:00,
2013-01-17 13:40:00,33.8,19.8,30.30,NW,313,9.0,10.0,56,0.00,,---,0.00,VWS V14.00,2013-01-17 19:40:00,
2013-01-17 13:45:00,33.8,19.8,30.30,NNW,331,7.0,7.0,56,0.00,,---,0.00,VWS V14.00,2013-01-17 19:45:00,
2013-01-17 13:51:00,34.0,19.1,30.30,NW,315,5.0,13.0,54,0.00,,---,0.00,VWS V14.00,2013-01-17 19:51:00,
2013-01-17 13:56:00,33.8,18.9,30.30,NW,310,5.0,14.0,54,0.00,,---,0.00,VWS V14.00,2013-01-17 19:56:00,
2013-01-17 14:01:00,33.8,18.9,30.30,NW,323,6.0,9.0,54,0.00,,---,0.00,VWS V14.00,2013-01-17 20:01:00,
2013-01-17 14:06:00,33.8,18.0,30.30,WNW,303,3.0,10.0,52,0.00,,---,0.00,VWS V14.00,2013-01-17 20:06:00,
2013-01-17 14:11:00,34.0,19.1,30.30,NNW,336,9.0,12.0,54,0.00,,---,0.00,VWS V14.00,2013-01-17 20:11:00,
2013-01-17 14:16:00,33.7,18.8,30.30,NNW,344,5.0,14.0,54,0.00,,---,0.00,VWS V14.00,2013-01-17 20:16:00,
2013-01-17 14:21:00,33.7,18.8,30.30,NW,322,9.0,10.0,54,0.00,,---,0.00,VWS V14.00,2013-01-17 20:21:00,
2013-01-17 14:26:00,33.5,18.6,30.30,NW,326,7.0,11.0,54,0.00,,---,0.00,VWS V14.00,2013-01-17 20:26:00,
2013-01-17 14:31:00,33.2,17.9,30.30,NW,318,4.0,11.0,53,0.00,,---,0.00,VWS V14.00,2013-01-17 20:31:00,
2013-01-17 14:36:00,33.2,17.9,30.31,NW,305,7.0,11.0,53,0.00,,---,0.00,VWS V14.00,2013-01-17 20:36:00,
2013-01-17 14:41:00,33.2,17.9,30.31,NW,317,5.0,7.0,53,0.00,,---,0.00,VWS V14.00,2013-01-17 20:41:00,
2013-01-17 14:46:00,33.2,17.9,30.31,NNW,329,5.0,10.0,53,0.00,,---,0.00,VWS V14.00,2013-01-17 20:46:00,
2013-01-17 14:51:00,32.9,18.1,30.32,NW,323,6.0,11.0,54,0.00,,---,0.00,VWS V14.00,2013-01-17 20:51:00,
2013-01-17 14:56:00,32.9,17.7,30.32,WNW,302,8.0,8.0,53,0.00,,---,0.00,VWS V14.00,2013-01-17 20:56:00,
2013-01-17 15:01:00,32.9,17.7,30.32,NNW,334,10.0,11.0,53,0.00,,---,0.00,VWS V14.00,2013-01-17 21:01:00,
2013-01-17 15:07:00,32.9,18.1,30.32,NW,326,8.0,12.0,54,0.00,,---,0.00,VWS V14.00,2013-01-17 21:07:00,
2013-01-17 15:12:00,32.9,17.7,30.32,NNW,327,7.0,15.0,53,0.00,,---,0.00,VWS V14.00,2013-01-17 21:12:00,
2013-01-17 15:17:00,32.8,17.6,30.32,NW,311,3.0,9.0,53,0.00,,---,0.00,VWS V14.00,2013-01-17 21:17:00,
2013-01-17 15:22:00,32.7,17.5,30.33,NW,318,5.0,5.0,53,0.00,,---,0.00,VWS V14.00,2013-01-17 21:22:00,
2013-01-17 15:27:00,32.5,17.3,30.33,NNW,331,10.0,10.0,53,0.00,,---,0.00,VWS V14.00,2013-01-17 21:27:00,
2013-01-17 15:32:00,32.4,17.2,30.33,NNW,330,3.0,3.0,53,0.00,,---,0.00,VWS V14.00,2013-01-17 21:32:00,
2013-01-17 15:37:00,32.5,17.3,30.33,NNW,334,7.0,7.0,53,0.00,,---,0.00,VWS V14.00,2013-01-17 21:37:00,
2013-01-17 15:42:00,32.4,17.6,30.33,NNW,333,9.0,9.0,54,0.00,,---,0.00,VWS V14.00,2013-01-17 21:42:00,
2013-01-17 15:47:00,32.2,17.0,30.33,North,351,10.0,10.0,53,0.00,,---,0.00,VWS V14.00,2013-01-17 21:47:00,
2013-01-17 15:52:00,31.9,15.8,30.33,NNW,335,10.0,10.0,51,0.00,,---,0.00,VWS V14.00,2013-01-17 21:52:00,
2013-01-17 15:57:00,31.8,16.6,30.33,NNW,333,11.0,13.0,53,0.00,,---,0.00,VWS V14.00,2013-01-17 21:57:00,
2013-01-17 16:03:00,31.6,16.5,30.33,NNW,331,4.0,11.0,53,0.00,,---,0.00,VWS V14.00,2013-01-17 22:03:00,
2013-01-17 16:08:00,31.5,16.8,30.34,NW,312,5.0,11.0,54,0.00,,---,0.00,VWS V14.00,2013-01-17 22:08:00,
2013-01-17 16:13:00,31.3,16.6,30.34,NNW,337,5.0,6.0,54,0.00,,---,0.00,VWS V14.00,2013-01-17 22:13:00,
2013-01-17 16:18:00,31.3,17.0,30.34,North,349,4.0,5.0,55,0.00,,---,0.00,VWS V14.00,2013-01-17 22:18:00,
2013-01-17 16:23:00,31.2,16.9,30.35,NNW,342,2.0,5.0,55,0.00,,---,0.00,VWS V14.00,2013-01-17 22:23:00,
2013-01-17 16:28:00,30.9,17.1,30.35,NW,306,6.0,11.0,56,0.00,,---,0.00,VWS V14.00,2013-01-17 22:28:00,
2013-01-17 16:33:00,30.7,16.9,30.35,NNW,328,3.0,11.0,56,0.00,,---,0.00,VWS V14.00,2013-01-17 22:33:00,
2013-01-17 16:38:00,30.4,17.0,30.35,NNW,327,7.0,9.0,57,0.00,,---,0.00,VWS V14.00,2013-01-17 22:38:00,
2013-01-17 16:43:00,30.1,16.7,30.35,NW,326,4.0,8.0,57,0.00,,---,0.00,VWS V14.00,2013-01-17 22:43:00,
2013-01-17 16:48:00,29.8,16.8,30.36,NNW,329,6.0,7.0,58,0.00,,---,0.00,VWS V14.00,2013-01-17 22:48:00,
2013-01-17 16:53:00,29.5,16.6,30.36,NNW,340,7.0,7.0,58,0.00,,---,0.00,VWS V14.00,2013-01-17 22:53:00,
2013-01-17 16:58:00,29.3,16.4,30.36,NNW,340,4.0,6.0,58,0.00,,---,0.00,VWS V14.00,2013-01-17 22:58:00,
2013-01-17 17:04:00,29.1,16.6,30.36,NNW,340,5.0,5.0,59,0.00,,---,0.00,VWS V14.00,2013-01-17 23:04:00,
2013-01-17 17:09:00,28.8,16.7,30.36,NNW,340,6.0,8.0,60,0.00,,---,0.00,VWS V14.00,2013-01-17 23:09:00,
2013-01-17 17:14:00,28.5,16.4,30.36,NNW,340,6.0,6.0,60,0.00,,---,0.00,VWS V14.00,2013-01-17 23:14:00,
2013-01-17 17:19:00,28.5,16.4,30.37,NNW,340,5.0,7.0,60,0.00,,---,0.00,VWS V14.00,2013-01-17 23:19:00,
2013-01-17 17:24:00,28.4,16.7,30.37,NNW,340,4.0,7.0,61,0.00,,---,0.00,VWS V14.00,2013-01-17 23:24:00,
2013-01-17 17:29:00,28.2,16.5,30.37,NNW,340,4.0,4.0,61,0.00,,---,0.00,VWS V14.00,2013-01-17 23:29:00,
2013-01-17 17:34:00,28.1,16.4,30.37,NNW,340,0.0,3.0,61,0.00,,---,0.00,VWS V14.00,2013-01-17 23:34:00,
2013-01-17 17:39:00,27.9,16.6,30.37,NNW,340,1.0,2.0,62,0.00,,---,0.00,VWS V14.00,2013-01-17 23:39:00,
2013-01-17 17:44:00,27.9,16.6,30.37,NNW,340,2.0,2.0,62,0.00,,---,0.00,VWS V14.00,2013-01-17 23:44:00,
2013-01-17 17:49:00,27.6,16.7,30.38,NNW,340,1.0,2.0,63,0.00,,---,0.00,VWS V14.00,2013-01-17 23:49:00,
2013-01-17 17:54:00,27.5,16.6,30.38,NNW,340,4.0,4.0,63,0.00,,---,0.00,VWS V14.00,2013-01-17 23:54:00,
2013-01-17 17:59:00,27.3,16.4,30.38,NNW,340,4.0,5.0,63,0.00,,---,0.00,VWS V14.00,2013-01-17 23:59:00,
2013-01-17 18:04:00,27.3,16.8,30.39,NNW,340,3.0,4.0,64,0.00,,---,0.00,VWS V14.00,2013-01-18 00:04:00,
2013-01-17 18:09:00,27.2,16.6,30.39,NNW,340,2.0,4.0,64,0.00,,---,0.00,VWS V14.00,2013-01-18 00:09:00,
2013-01-17 18:14:00,27.0,16.8,30.39,NNW,340,3.0,3.0,65,0.00,,---,0.00,VWS V14.00,2013-01-18 00:14:00,
2013-01-17 18:19:00,26.9,17.1,30.39,NNW,340,2.0,3.0,66,0.00,,---,0.00,VWS V14.00,2013-01-18 00:19:00,
2013-01-17 18:24:00,26.7,17.2,30.39,NNW,340,1.0,3.0,67,0.00,,---,0.00,VWS V14.00,2013-01-18 00:24:00,
2013-01-17 18:29:00,26.6,17.1,30.39,NNW,340,2.0,3.0,67,0.00,,---,0.00,VWS V14.00,2013-01-18 00:29:00,
2013-01-17 18:35:00,26.6,17.1,30.40,NNW,340,0.0,2.0,67,0.00,,---,0.00,VWS V14.00,2013-01-18 00:35:00,
2013-01-17 18:40:00,26.6,17.1,30.40,NNW,340,0.0,0.0,67,0.00,,---,0.00,VWS V14.00,2013-01-18 00:40:00,
2013-01-17 18:45:00,26.4,16.9,30.40,NNW,340,2.0,2.0,67,0.00,,---,0.00,VWS V14.00,2013-01-18 00:45:00,
2013-01-17 18:50:00,26.3,16.9,30.40,NNW,340,0.0,2.0,67,0.00,,---,0.00,VWS V14.00,2013-01-18 00:50:00,
2013-01-17 18:55:00,26.1,17.0,30.40,NNW,340,1.0,3.0,68,0.00,,---,0.00,VWS V14.00,2013-01-18 00:55:00,
2013-01-17 19:00:00,26.0,16.9,30.40,NNW,340,0.0,0.0,68,0.00,,---,0.00,VWS V14.00,2013-01-18 01:00:00,
2013-01-17 19:05:00,25.8,16.7,30.40,NNW,340,0.0,0.0,68,0.00,,---,0.00,VWS V14.00,2013-01-18 01:05:00,
2013-01-17 19:10:00,25.7,17.0,30.40,NNW,340,0.0,0.0,69,0.00,,---,0.00,VWS V14.00,2013-01-18 01:10:00,
2013-01-17 19:15:00,25.7,17.0,30.40,NNW,340,0.0,0.0,69,0.00,,---,0.00,VWS V14.00,2013-01-18 01:15:00,
2013-01-17 19:20:00,25.6,17.2,30.41,NNW,340,0.0,2.0,70,0.00,,---,0.00,VWS V14.00,2013-01-18 01:20:00,
2013-01-17 19:25:00,25.6,17.2,30.41,NNW,340,0.0,0.0,70,0.00,,---,0.00,VWS V14.00,2013-01-18 01:25:00,
2013-01-17 19:30:00,25.6,17.2,30.41,NNW,340,0.0,0.0,70,0.00,,---,0.00,VWS V14.00,2013-01-18 01:30:00,
2013-01-17 19:35:00,25.4,17.3,30.41,NNW,340,0.0,0.0,71,0.00,,---,0.00,VWS V14.00,2013-01-18 01:35:00,
2013-01-17 19:41:00,25.4,17.3,30.41,NNW,340,0.0,0.0,71,0.00,,---,0.00,VWS V14.00,2013-01-18 01:41:00,
2013-01-17 19:46:00,25.3,17.2,30.41,NNW,340,0.0,0.0,71,0.00,,---,0.00,VWS V14.00,2013-01-18 01:46:00,
2013-01-17 19:51:00,25.1,17.0,30.41,NNW,340,0.0,0.0,71,0.00,,---,0.00,VWS V14.00,2013-01-18 01:51:00,
2013-01-17 19:56:00,24.8,17.1,30.41,NNW,340,0.0,0.0,72,0.00,,---,0.00,VWS V14.00,2013-01-18 01:56:00,
2013-01-17 20:01:00,24.8,17.7,30.41,NNW,340,1.0,2.0,74,0.00,,---,0.00,VWS V14.00,2013-01-18 02:01:00,
2013-01-17 20:06:00,24.8,17.7,30.41,NNW,340,1.0,2.0,74,0.00,,---,0.00,VWS V14.00,2013-01-18 02:06:00,
2013-01-17 20:11:00,25.0,17.9,30.41,NNW,340,3.0,3.0,74,0.00,,---,0.00,VWS V14.00,2013-01-18 02:11:00,
2013-01-17 20:16:00,25.0,17.9,30.41,NNW,340,0.0,1.0,74,0.00,,---,0.00,VWS V14.00,2013-01-18 02:16:00,
2013-01-17 20:21:00,24.8,17.7,30.42,NNW,340,1.0,2.0,74,0.00,,---,0.00,VWS V14.00,2013-01-18 02:21:00,
2013-01-17 20:26:00,25.0,17.9,30.42,NNW,340,1.0,1.0,74,0.00,,---,0.00,VWS V14.00,2013-01-18 02:26:00,
2013-01-17 20:31:00,25.0,17.9,30.42,NNW,340,0.0,0.0,74,0.00,,---,0.00,VWS V14.00,2013-01-18 02:31:00,
2013-01-17 20:36:00,24.7,17.6,30.42,NNW,340,0.0,0.0,74,0.00,,---,0.00,VWS V14.00,2013-01-18 02:36:00,
2013-01-17 20:41:00,24.4,17.3,30.42,NNW,340,0.0,0.0,74,0.00,,---,0.00,VWS V14.00,2013-01-18 02:41:00,
2013-01-17 20:46:00,24.1,17.0,30.42,NNW,340,0.0,0.0,74,0.00,,---,0.00,VWS V14.00,2013-01-18 02:46:00,
2013-01-17 20:51:00,23.9,17.5,30.42,NNW,340,0.0,0.0,76,0.00,,---,0.00,VWS V14.00,2013-01-18 02:51:00,
2013-01-17 20:56:00,23.8,17.7,30.42,NNW,340,0.0,0.0,77,0.00,,---,0.00,VWS V14.00,2013-01-18 02:56:00,
2013-01-17 21:01:00,23.8,17.7,30.42,NNW,340,0.0,0.0,77,0.00,,---,0.00,VWS V14.00,2013-01-18 03:01:00,
2013-01-17 21:06:00,23.0,17.8,30.42,NNW,340,2.0,2.0,80,0.00,,---,0.00,VWS V14.00,2013-01-18 03:06:00,
2013-01-17 21:12:00,22.7,17.8,30.42,NNW,340,0.0,1.0,81,0.00,,---,0.00,VWS V14.00,2013-01-18 03:12:00,
2013-01-17 21:17:00,22.4,17.5,30.42,NNW,340,1.0,1.0,81,0.00,,---,0.00,VWS V14.00,2013-01-18 03:17:00,
2013-01-17 21:22:00,22.1,17.5,30.43,NNW,340,1.0,2.0,82,0.00,,---,0.00,VWS V14.00,2013-01-18 03:22:00,
2013-01-17 21:27:00,21.9,17.3,30.43,NNW,340,0.0,0.0,82,0.00,,---,0.00,VWS V14.00,2013-01-18 03:27:00,
2013-01-17 21:32:00,21.8,17.4,30.43,NNW,340,0.0,0.0,83,0.00,,---,0.00,VWS V14.00,2013-01-18 03:32:00,
2013-01-17 21:37:00,21.8,17.4,30.43,NNW,340,0.0,0.0,83,0.00,,---,0.00,VWS V14.00,2013-01-18 03:37:00,
2013-01-17 21:42:00,21.6,17.2,30.43,NNW,340,0.0,0.0,83,0.00,,---,0.00,VWS V14.00,2013-01-18 03:42:00,
2013-01-17 21:47:00,21.4,17.0,30.43,NNW,340,0.0,0.0,83,0.00,,---,0.00,VWS V14.00,2013-01-18 03:47:00,
2013-01-17 21:52:00,21.4,17.3,30.43,NNW,340,0.0,0.0,84,0.00,,---,0.00,VWS V14.00,2013-01-18 03:52:00,
2013-01-17 21:57:00,21.3,17.2,30.43,NNW,340,0.0,0.0,84,0.00,,---,0.00,VWS V14.00,2013-01-18 03:57:00,
2013-01-17 22:02:00,21.1,17.0,30.43,NNW,340,0.0,0.0,84,0.00,,---,0.00,VWS V14.00,2013-01-18 04:02:00,
2013-01-17 22:07:00,21.1,17.0,30.43,NNW,340,0.0,0.0,84,0.00,,---,0.00,VWS V14.00,2013-01-18 04:07:00,
2013-01-17 22:12:00,21.1,17.3,30.43,NNW,340,0.0,0.0,85,0.00,,---,0.00,VWS V14.00,2013-01-18 04:12:00,
2013-01-17 22:17:00,21.1,17.3,30.43,NNW,340,0.0,0.0,85,0.00,,---,0.00,VWS V14.00,2013-01-18 04:17:00,
2013-01-17 22:22:00,21.1,17.3,30.42,NNW,340,2.0,2.0,85,0.00,,---,0.00,VWS V14.00,2013-01-18 04:22:00,
2013-01-17 22:27:00,21.1,17.3,30.42,NNW,340,1.0,2.0,85,0.00,,---,0.00,VWS V14.00,2013-01-18 04:27:00,
2013-01-17 22:32:00,21.1,17.3,30.42,NNW,340,0.0,0.0,85,0.00,,---,0.00,VWS V14.00,2013-01-18 04:32:00,
2013-01-17 22:37:00,21.0,17.2,30.42,NNW,340,2.0,3.0,85,0.00,,---,0.00,VWS V14.00,2013-01-18 04:37:00,
2013-01-17 22:43:00,20.8,17.0,30.42,NNW,340,2.0,3.0,85,0.00,,---,0.00,VWS V14.00,2013-01-18 04:43:00,
2013-01-17 22:48:00,20.8,17.0,30.42,NNW,340,3.0,4.0,85,0.00,,---,0.00,VWS V14.00,2013-01-18 04:48:00,
2013-01-17 22:53:00,20.8,17.0,30.42,NNW,340,3.0,3.0,85,0.00,,---,0.00,VWS V14.00,2013-01-18 04:53:00,
2013-01-17 22:58:00,20.8,17.0,30.42,NNW,340,2.0,3.0,85,0.00,,---,0.00,VWS V14.00,2013-01-18 04:58:00,
2013-01-17 23:00:00,20.8,17.0,30.42,NNW,340,3.0,3.0,85,0.00,,---,0.00,VWS V14.00,2013-01-18 05:00:00,
2013-01-17 23:01:00,20.8,17.0,30.42,NNW,340,2.0,3.0,85,0.00,,---,0.00,VWS V14.00,2013-01-18 05:01:00,
2013-01-17 23:03:00,20.6,16.8,30.42,NNW,340,2.0,3.0,85,0.00,,---,0.00,VWS V14.00,2013-01-18 05:03:00,
2013-01-17 23:08:00,20.6,16.8,30.42,NNW,340,2.0,3.0,85,0.00,,---,0.00,VWS V14.00,2013-01-18 05:08:00,
2013-01-17 23:13:00,20.6,16.8,30.42,NNW,340,0.0,2.0,85,0.00,,---,0.00,VWS V14.00,2013-01-18 05:13:00,
2013-01-17 23:18:00,20.5,16.7,30.42,NNW,340,2.0,2.0,85,0.00,,---,0.00,VWS V14.00,2013-01-18 05:18:00,
2013-01-17 23:23:00,20.3,16.5,30.42,NNW,340,2.0,3.0,85,0.00,,---,0.00,VWS V14.00,2013-01-18 05:23:00,
2013-01-17 23:28:00,20.2,16.4,30.42,NNW,340,1.0,2.0,85,0.00,,---,0.00,VWS V14.00,2013-01-18 05:28:00,
2013-01-17 23:33:00,20.0,16.2,30.42,NNW,340,0.0,1.0,85,0.00,,---,0.00,VWS V14.00,2013-01-18 05:33:00,
2013-01-17 23:38:00,19.9,16.1,30.43,NNW,340,0.0,0.0,85,0.00,,---,0.00,VWS V14.00,2013-01-18 05:38:00,
2013-01-17 23:43:00,19.9,16.1,30.43,NNW,340,0.0,0.0,85,0.00,,---,0.00,VWS V14.00,2013-01-18 05:43:00,
2013-01-17 23:48:00,19.7,15.9,30.44,NNW,340,0.0,0.0,85,0.00,,---,0.00,VWS V14.00,2013-01-18 05:48:00,
2013-01-17 23:53:00,19.5,15.7,30.44,NNW,340,0.0,0.0,85,0.00,,---,0.00,VWS V14.00,2013-01-18 05:53:00,
2013-01-17 23:58:00,19.4,15.6,30.44,NNW,340,0.0,0.0,85,0.00,,---,0.00,VWS V14.00,2013-01-18 05:58:00,